Terminal Aerodrome Forecast
Issued by NWS

Home | Current Version | Previous Version | Text Only | Print | Product List | Glossary On
Versions: 1 2 3 4 5 6 7 8 9 10 11 12 13 14 15 16 17 18 19 20
000
FTUS41 KPBZ 270527
TAFHLG
TAF
KHLG 270527Z 2706/2806 VRB03KT P6SM SCT150 BKN200
     FM272100 25004KT P6SM VCSH BKN040 OVC100
     FM280300 VRB03KT P6SM BKN040=

USA.gov is the U.S. government's official web portal to all federal, state and local government web resources and services.